This is the latest recevied weather packets stored in our database for station/object HP1COO-13. If no packets are shown the sender has not sent any weather packets the latest 10 day(s).
| Time | Temp. | Humidity | Pressure | Rain* | Wind** | Luminosity | Snow |
|---|---|---|---|---|---|---|---|
| 1777505418 | 25.56° C | 98% | 1004.9 hPa | 7.87 mm | - | - | - |
| 1777504785 | 25.56° C | 99% | 1004.7 hPa | 10.67 mm | - | - | - |
| 1777504152 | 25.56° C | 99% | 1004.6 hPa | 12.19 mm | - | - | - |
| 1777503519 | 25.56° C | 99% | 1004.6 hPa | 28.96 mm | - | - | - |
| 1777502886 | 25.56° C | 99% | 1004.4 hPa | 54.61 mm | - | - | - |
| 1777502253 | 25.56° C | 99% | 1004.2 hPa | 56.39 mm | - | - | - |
| 1777501620 | 25.56° C | 99% | 1004.5 hPa | 59.44 mm | - | - | - |
| 1777500987 | 25.56° C | 99% | 1004.5 hPa | 58.42 mm | - | - | - |
| 1777500354 | 25.56° C | 99% | 1004.5 hPa | 54.86 mm | - | - | - |
| 1777499721 | 25.56° C | 98% | 1004.5 hPa | 43.94 mm | - | - | - |
| 1777499088 | 25.56° C | 98% | 1004.2 hPa | 54.36 mm | - | - | - |
| 1777498455 | 25.56° C | 99% | 1004.2 hPa | 68.58 mm | - | - | - |
| 1777496556 | 23.89° C | 97% | 1004.6 hPa | 69.6 mm | - | - | - |
| 1777495923 | 25° C | 94% | 1004.8 hPa | 57.4 mm | - | - | - |
| 1777495290 | 25° C | 95% | 1004.6 hPa | 21.08 mm | - | - | - |
| 1777494657 | 26.11° C | 88% | 1004.5 hPa | 3.56 mm | - | - | - |
| 1777494024 | 29.44° C | 84% | 1004.4 hPa | 0 mm | - | - | - |
| 1777493391 | 31.11° C | 76% | 1003.8 hPa | 0 mm | - | - | - |
| 1777492758 | 30.56° C | 79% | 1003.7 hPa | 0 mm | - | - | - |
| 1777492125 | 30° C | 83% | 1003.7 hPa | 0 mm | - | - | - |
| 1777491492 | 29.44° C | 82% | 1004.1 hPa | 0 mm | - | - | - |
| 1777490859 | 29.44° C | 82% | 1004.5 hPa | 0.25 mm | - | - | - |
| 1777490226 | 28.89° C | 86% | 1004.7 hPa | 0.25 mm | - | - | - |
| 1777489593 | 28.89° C | 87% | 1004.7 hPa | 1.27 mm | - | - | - |
| 1777488960 | 28.33° C | 91% | 1005.1 hPa | 1.52 mm | - | - | - |
* Rain latest hour (hover to see other rain measurements)
** Current wind speed in m/s (hover to see current wind gust speed)